sensor_id;sensor_type;location;lat;lon;timestamp;pressure;altitude;pressure_sealevel;temperature;humidity
18137;BME280;9194;42.632;23.298;2023-08-08T00:01:17;92461.88;;;16.22;100.00
18137;BME280;9194;42.632;23.298;2023-08-08T00:06:18;92474.66;;;16.03;100.00
18137;BME280;9194;42.632;23.298;2023-08-08T00:11:19;92481.41;;;15.79;100.00
18137;BME280;9194;42.632;23.298;2023-08-08T00:16:21;92472.28;;;15.50;100.00
18137;BME280;9194;42.632;23.298;2023-08-08T00:21:22;92474.78;;;15.25;100.00
18137;BME280;9194;42.632;23.298;2023-08-08T00:26:23;92469.88;;;14.96;100.00
18137;BME280;9194;42.632;23.298;2023-08-08T00:31:25;92470.25;;;14.78;100.00
18137;BME280;9194;42.632;23.298;2023-08-08T00:36:27;92485.25;;;14.56;100.00
18137;BME280;9194;42.632;23.298;2023-08-08T00:41:28;92480.59;;;14.63;100.00
18137;BME280;9194;42.632;23.298;2023-08-08T00:46:29;92481.28;;;14.53;100.00
18137;BME280;9194;42.632;23.298;2023-08-08T00:51:31;92465.06;;;14.56;100.00
18137;BME280;9194;42.632;23.298;2023-08-08T00:56:32;92485.25;;;14.56;100.00
18137;BME280;9194;42.632;23.298;2023-08-08T01:01:34;92485.34;;;14.39;100.00
18137;BME280;9194;42.632;23.298;2023-08-08T01:06:37;92486.28;;;14.55;100.00
18137;BME280;9194;42.632;23.298;2023-08-08T01:11:39;92484.75;;;14.59;100.00
18137;BME280;9194;42.632;23.298;2023-08-08T01:16:42;92505.91;;;14.52;100.00
18137;BME280;9194;42.632;23.298;2023-08-08T01:21:44;92491.84;;;14.36;100.00
18137;BME280;9194;42.632;23.298;2023-08-08T01:26:46;92506.66;;;14.48;100.00
18137;BME280;9194;42.632;23.298;2023-08-08T01:31:49;92505.00;;;14.42;100.00
18137;BME280;9194;42.632;23.298;2023-08-08T01:37:04;92510.72;;;14.38;100.00
18137;BME280;9194;42.632;23.298;2023-08-08T01:42:08;92537.47;;;14.41;100.00
18137;BME280;9194;42.632;23.298;2023-08-08T01:47:09;92550.31;;;14.42;100.00
18137;BME280;9194;42.632;23.298;2023-08-08T01:52:10;92560.97;;;14.35;100.00
18137;BME280;9194;42.632;23.298;2023-08-08T01:57:12;92574.19;;;14.46;100.00
18137;BME280;9194;42.632;23.298;2023-08-08T02:02:13;92581.06;;;14.52;100.00
18137;BME280;9194;42.632;23.298;2023-08-08T02:07:14;92583.22;;;14.55;100.00
18137;BME280;9194;42.632;23.298;2023-08-08T02:12:16;92575.41;;;14.60;100.00
18137;BME280;9194;42.632;23.298;2023-08-08T02:17:17;92587.84;;;14.48;100.00
18137;BME280;9194;42.632;23.298;2023-08-08T02:22:19;92593.91;;;14.53;100.00
18137;BME280;9194;42.632;23.298;2023-08-08T02:27:20;92598.75;;;14.61;100.00
18137;BME280;9194;42.632;23.298;2023-08-08T02:32:21;92603.66;;;14.58;100.00
18137;BME280;9194;42.632;23.298;2023-08-08T02:37:22;92604.22;;;14.60;100.00
18137;BME280;9194;42.632;23.298;2023-08-08T02:42:23;92606.66;;;14.66;100.00
18137;BME280;9194;42.632;23.298;2023-08-08T02:47:25;92626.03;;;14.65;100.00
18137;BME280;9194;42.632;23.298;2023-08-08T02:52:26;92616.81;;;14.63;100.00
18137;BME280;9194;42.632;23.298;2023-08-08T02:57:27;92623.75;;;14.74;100.00
18137;BME280;9194;42.632;23.298;2023-08-08T03:02:30;92625.28;;;14.70;100.00
18137;BME280;9194;42.632;23.298;2023-08-08T03:07:31;92626.69;;;14.77;100.00
18137;BME280;9194;42.632;23.298;2023-08-08T03:12:33;92626.91;;;14.76;100.00
18137;BME280;9194;42.632;23.298;2023-08-08T03:17:35;92616.16;;;14.72;100.00
18137;BME280;9194;42.632;23.298;2023-08-08T03:22:37;92621.00;;;14.64;100.00
18137;BME280;9194;42.632;23.298;2023-08-08T03:27:39;92636.19;;;14.62;100.00
18137;BME280;9194;42.632;23.298;2023-08-08T03:32:42;92623.41;;;14.65;100.00
18137;BME280;9194;42.632;23.298;2023-08-08T03:37:43;92631.22;;;14.60;100.00
18137;BME280;9194;42.632;23.298;2023-08-08T03:42:45;92632.72;;;14.56;100.00
18137;BME280;9194;42.632;23.298;2023-08-08T03:47:46;92628.09;;;14.63;100.00
18137;BME280;9194;42.632;23.298;2023-08-08T03:52:47;92622.50;;;14.82;100.00
18137;BME280;9194;42.632;23.298;2023-08-08T03:57:49;92614.59;;;15.03;100.00
18137;BME280;9194;42.632;23.298;2023-08-08T04:02:51;92618.03;;;15.04;100.00
18137;BME280;9194;42.632;23.298;2023-08-08T04:07:53;92635.28;;;15.00;100.00
18137;BME280;9194;42.632;23.298;2023-08-08T04:12:54;92647.84;;;14.98;100.00
18137;BME280;9194;42.632;23.298;2023-08-08T04:17:55;92653.34;;;14.96;100.00
18137;BME280;9194;42.632;23.298;2023-08-08T04:22:56;92662.44;;;15.15;100.00
18137;BME280;9194;42.632;23.298;2023-08-08T05:13:47;92726.59;;;15.30;100.00
18137;BME280;9194;42.632;23.298;2023-08-08T05:18:48;92742.69;;;15.43;100.00
18137;BME280;9194;42.632;23.298;2023-08-08T05:23:49;92746.25;;;15.32;100.00
18137;BME280;9194;42.632;23.298;2023-08-08T05:28:51;92743.34;;;15.29;100.00
18137;BME280;9194;42.632;23.298;2023-08-08T05:33:52;92750.38;;;15.72;100.00
18137;BME280;9194;42.632;23.298;2023-08-08T05:38:53;92757.31;;;16.20;100.00
18137;BME280;9194;42.632;23.298;2023-08-08T05:43:54;92751.91;;;16.73;100.00
18137;BME280;9194;42.632;23.298;2023-08-08T05:48:56;92763.50;;;17.40;100.00
18137;BME280;9194;42.632;23.298;2023-08-08T05:53:57;92774.13;;;17.60;95.45
18137;BME280;9194;42.632;23.298;2023-08-08T05:58:58;92787.97;;;17.35;100.00
18137;BME280;9194;42.632;23.298;2023-08-08T06:03:59;92792.94;;;17.27;100.00
18137;BME280;9194;42.632;23.298;2023-08-08T06:09:01;92800.13;;;16.52;100.00
18137;BME280;9194;42.632;23.298;2023-08-08T06:14:02;92794.31;;;16.13;100.00
18137;BME280;9194;42.632;23.298;2023-08-08T06:19:03;92799.09;;;16.53;100.00
18137;BME280;9194;42.632;23.298;2023-08-08T06:24:05;92787.44;;;16.76;94.72
18137;BME280;9194;42.632;23.298;2023-08-08T06:29:06;92776.38;;;16.79;99.34
18137;BME280;9194;42.632;23.298;2023-08-08T06:34:07;92782.44;;;16.42;97.77
18137;BME280;9194;42.632;23.298;2023-08-08T06:39:08;92772.22;;;16.09;90.60
18137;BME280;9194;42.632;23.298;2023-08-08T06:44:10;92773.63;;;16.22;90.67
18137;BME280;9194;42.632;23.298;2023-08-08T06:49:11;92771.88;;;16.69;92.20
18137;BME280;9194;42.632;23.298;2023-08-08T06:54:12;92778.28;;;17.51;89.49
18137;BME280;9194;42.632;23.298;2023-08-08T06:59:13;92781.25;;;17.70;87.38
18137;BME280;9194;42.632;23.298;2023-08-08T07:04:15;92792.16;;;17.31;84.61
18137;BME280;9194;42.632;23.298;2023-08-08T07:09:16;92779.88;;;17.52;88.23
18137;BME280;9194;42.632;23.298;2023-08-08T07:14:17;92790.06;;;17.38;87.72
18137;BME280;9194;42.632;23.298;2023-08-08T07:19:20;92780.00;;;17.15;84.70
18137;BME280;9194;42.632;23.298;2023-08-08T07:24:22;92780.09;;;17.35;92.70
18137;BME280;9194;42.632;23.298;2023-08-08T07:29:27;92784.94;;;17.74;85.23
18137;BME280;9194;42.632;23.298;2023-08-08T07:34:28;92778.66;;;17.95;87.37
18137;BME280;9194;42.632;23.298;2023-08-08T07:39:30;92787.59;;;17.94;81.54
18137;BME280;9194;42.632;23.298;2023-08-08T07:44:31;92795.53;;;18.19;78.37
18137;BME280;9194;42.632;23.298;2023-08-08T07:49:35;92781.31;;;18.51;77.00
18137;BME280;9194;42.632;23.298;2023-08-08T07:54:36;92779.09;;;19.13;76.63
18137;BME280;9194;42.632;23.298;2023-08-08T07:59:38;92784.69;;;18.97;74.09
18137;BME280;9194;42.632;23.298;2023-08-08T08:04:39;92776.22;;;19.05;71.07
18137;BME280;9194;42.632;23.298;2023-08-08T08:09:40;92767.84;;;18.82;70.83
18137;BME280;9194;42.632;23.298;2023-08-08T08:14:43;92779.69;;;18.95;70.75
18137;BME280;9194;42.632;23.298;2023-08-08T08:19:44;92779.59;;;19.25;67.16
18137;BME280;9194;42.632;23.298;2023-08-08T08:24:45;92768.91;;;18.76;69.20
18137;BME280;9194;42.632;23.298;2023-08-08T08:29:47;92768.31;;;19.00;74.83
18137;BME280;9194;42.632;23.298;2023-08-08T08:34:48;92770.78;;;18.10;75.50
18137;BME280;9194;42.632;23.298;2023-08-08T08:39:49;92778.56;;;19.11;77.41
18137;BME280;9194;42.632;23.298;2023-08-08T08:44:51;92768.63;;;19.57;69.03
18137;BME280;9194;42.632;23.298;2023-08-08T08:49:54;92769.06;;;19.75;64.87
18137;BME280;9194;42.632;23.298;2023-08-08T08:54:57;92779.38;;;20.15;62.33
18137;BME280;9194;42.632;23.298;2023-08-08T08:59:58;92785.84;;;19.45;62.33
18137;BME280;9194;42.632;23.298;2023-08-08T09:05:00;92774.38;;;19.00;68.26
18137;BME280;9194;42.632;23.298;2023-08-08T09:10:03;92789.22;;;18.66;71.31
18137;BME280;9194;42.632;23.298;2023-08-08T09:15:05;92782.38;;;18.60;73.67
18137;BME280;9194;42.632;23.298;2023-08-08T09:20:07;92790.16;;;19.20;67.01
18137;BME280;9194;42.632;23.298;2023-08-08T09:25:09;92788.97;;;18.62;72.07
18137;BME280;9194;42.632;23.298;2023-08-08T09:30:10;92785.31;;;19.43;65.37
18137;BME280;9194;42.632;23.298;2023-08-08T09:35:12;92790.56;;;19.58;64.70
18137;BME280;9194;42.632;23.298;2023-08-08T09:40:14;92791.84;;;18.71;72.55
18137;BME280;9194;42.632;23.298;2023-08-08T09:45:15;92795.63;;;19.34;74.64
18137;BME280;9194;42.632;23.298;2023-08-08T09:50:17;92796.00;;;19.77;73.59
18137;BME280;9194;42.632;23.298;2023-08-08T09:55:19;92793.31;;;19.87;66.14
18137;BME280;9194;42.632;23.298;2023-08-08T10:00:21;92806.97;;;19.45;67.17
18137;BME280;9194;42.632;23.298;2023-08-08T10:05:22;92787.66;;;19.59;64.57
18137;BME280;9194;42.632;23.298;2023-08-08T10:10:24;92795.75;;;19.78;64.50
18137;BME280;9194;42.632;23.298;2023-08-08T10:15:26;92799.47;;;19.72;67.74
18137;BME280;9194;42.632;23.298;2023-08-08T10:20:31;92799.53;;;19.57;67.11
18137;BME280;9194;42.632;23.298;2023-08-08T10:25:34;92805.34;;;19.59;64.14
18137;BME280;9194;42.632;23.298;2023-08-08T10:35:53;92792.16;;;20.03;61.82
18137;BME280;9194;42.632;23.298;2023-08-08T10:40:59;92782.69;;;19.97;65.96
18137;BME280;9194;42.632;23.298;2023-08-08T10:46:04;92766.78;;;20.41;66.52
18137;BME280;9194;42.632;23.298;2023-08-08T10:51:05;92765.72;;;20.42;62.27
18137;BME280;9194;42.632;23.298;2023-08-08T10:56:13;92767.16;;;20.24;63.51
18137;BME280;9194;42.632;23.298;2023-08-08T11:01:14;92769.25;;;20.32;62.83
18137;BME280;9194;42.632;23.298;2023-08-08T11:06:17;92765.41;;;20.09;63.76
18137;BME280;9194;42.632;23.298;2023-08-08T11:11:19;92766.06;;;20.30;60.96
18137;BME280;9194;42.632;23.298;2023-08-08T11:16:21;92765.25;;;20.35;59.86
18137;BME280;9194;42.632;23.298;2023-08-08T11:21:23;92763.09;;;20.42;60.99
18137;BME280;9194;42.632;23.298;2023-08-08T11:26:24;92760.88;;;20.54;62.08
18137;BME280;9194;42.632;23.298;2023-08-08T11:31:28;92753.78;;;20.49;60.41
18137;BME280;9194;42.632;23.298;2023-08-08T11:36:34;92754.69;;;20.64;57.89
18137;BME280;9194;42.632;23.298;2023-08-08T11:41:36;92754.94;;;20.91;61.48
18137;BME280;9194;42.632;23.298;2023-08-08T11:46:45;92756.41;;;20.78;60.81
18137;BME280;9194;42.632;23.298;2023-08-08T11:51:49;92743.34;;;20.87;59.95
18137;BME280;9194;42.632;23.298;2023-08-08T11:56:51;92748.72;;;21.06;61.64
18137;BME280;9194;42.632;23.298;2023-08-08T12:01:53;92742.66;;;20.76;57.48
18137;BME280;9194;42.632;23.298;2023-08-08T12:07:01;92739.63;;;20.64;58.17
18137;BME280;9194;42.632;23.298;2023-08-08T12:12:03;92742.53;;;20.29;59.84
18137;BME280;9194;42.632;23.298;2023-08-08T12:17:06;92742.53;;;20.29;60.13
18137;BME280;9194;42.632;23.298;2023-08-08T12:22:07;92730.16;;;20.58;61.28
18137;BME280;9194;42.632;23.298;2023-08-08T12:27:08;92725.69;;;20.54;60.80
18137;BME280;9194;42.632;23.298;2023-08-08T12:32:10;92728.34;;;20.20;59.40
18137;BME280;9194;42.632;23.298;2023-08-08T12:37:11;92726.16;;;20.32;61.74
18137;BME280;9194;42.632;23.298;2023-08-08T12:42:13;92725.59;;;20.35;58.80
18137;BME280;9194;42.632;23.298;2023-08-08T12:47:14;92727.09;;;20.46;59.69
18137;BME280;9194;42.632;23.298;2023-08-08T12:52:16;92723.91;;;20.49;60.84
18137;BME280;9194;42.632;23.298;2023-08-08T12:57:17;92709.97;;;20.67;58.13
18137;BME280;9194;42.632;23.298;2023-08-08T13:02:18;92710.91;;;20.76;57.63
18137;BME280;9194;42.632;23.298;2023-08-08T13:07:20;92714.63;;;20.75;62.32
18137;BME280;9194;42.632;23.298;2023-08-08T13:12:21;92696.63;;;20.77;60.06
18137;BME280;9194;42.632;23.298;2023-08-08T13:17:23;92705.75;;;20.66;58.22
18137;BME280;9194;42.632;23.298;2023-08-08T13:22:24;92704.22;;;21.08;57.44
18137;BME280;9194;42.632;23.298;2023-08-08T13:27:25;92698.88;;;21.13;57.02
18137;BME280;9194;42.632;23.298;2023-08-08T13:32:27;92704.16;;;21.13;58.56
18137;BME280;9194;42.632;23.298;2023-08-08T13:37:29;92702.81;;;20.91;58.05
18137;BME280;9194;42.632;23.298;2023-08-08T13:42:31;92701.47;;;20.94;57.65
18137;BME280;9194;42.632;23.298;2023-08-08T13:47:32;92702.47;;;20.98;57.20
18137;BME280;9194;42.632;23.298;2023-08-08T13:52:33;92709.63;;;21.21;57.63
18137;BME280;9194;42.632;23.298;2023-08-08T13:57:35;92704.38;;;21.40;57.78
18137;BME280;9194;42.632;23.298;2023-08-08T14:02:37;92707.94;;;21.49;57.41
18137;BME280;9194;42.632;23.298;2023-08-08T14:07:38;92706.03;;;20.88;57.14
18137;BME280;9194;42.632;23.298;2023-08-08T14:12:40;92707.03;;;20.40;57.10
18137;BME280;9194;42.632;23.298;2023-08-08T14:17:42;92708.09;;;20.44;57.42
18137;BME280;9194;42.632;23.298;2023-08-08T14:22:44;92704.50;;;20.59;59.95
18137;BME280;9194;42.632;23.298;2023-08-08T14:27:46;92696.81;;;20.57;59.09
18137;BME280;9194;42.632;23.298;2023-08-08T14:32:47;92698.19;;;20.55;59.25
18137;BME280;9194;42.632;23.298;2023-08-08T14:37:49;92706.25;;;20.05;61.25
18137;BME280;9194;42.632;23.298;2023-08-08T14:42:50;92691.75;;;19.98;62.68
18137;BME280;9194;42.632;23.298;2023-08-08T14:47:52;92690.91;;;20.07;60.42
18137;BME280;9194;42.632;23.298;2023-08-08T14:52:53;92703.50;;;20.21;61.30
18137;BME280;9194;42.632;23.298;2023-08-08T14:57:54;92694.00;;;20.20;58.82
18137;BME280;9194;42.632;23.298;2023-08-08T15:02:56;92692.59;;;20.32;60.71
18137;BME280;9194;42.632;23.298;2023-08-08T15:07:58;92700.25;;;20.29;61.74
18137;BME280;9194;42.632;23.298;2023-08-08T15:12:59;92688.09;;;20.28;65.25
18137;BME280;9194;42.632;23.298;2023-08-08T15:18:00;92694.25;;;20.18;60.21
18137;BME280;9194;42.632;23.298;2023-08-08T15:23:02;92692.88;;;20.26;61.04
18137;BME280;9194;42.632;23.298;2023-08-08T15:28:04;92694.69;;;20.30;62.01
18137;BME280;9194;42.632;23.298;2023-08-08T15:33:05;92698.22;;;20.16;62.06
18137;BME280;9194;42.632;23.298;2023-08-08T15:38:06;92704.31;;;20.16;62.73
18137;BME280;9194;42.632;23.298;2023-08-08T15:43:08;92702.72;;;20.20;63.01
18137;BME280;9194;42.632;23.298;2023-08-08T15:48:09;92716.19;;;20.19;64.21
18137;BME280;9194;42.632;23.298;2023-08-08T15:53:11;92712.16;;;19.97;65.77
18137;BME280;9194;42.632;23.298;2023-08-08T15:58:12;92715.06;;;19.96;68.43
18137;BME280;9194;42.632;23.298;2023-08-08T16:03:14;92723.06;;;19.81;68.42
18137;BME280;9194;42.632;23.298;2023-08-08T16:08:15;92729.59;;;19.54;70.23
18137;BME280;9194;42.632;23.298;2023-08-08T16:13:16;92742.00;;;19.54;69.59
18137;BME280;9194;42.632;23.298;2023-08-08T16:18:18;92745.19;;;19.51;67.43
18137;BME280;9194;42.632;23.298;2023-08-08T16:23:19;92745.22;;;19.36;71.32
18137;BME280;9194;42.632;23.298;2023-08-08T16:28:20;92748.38;;;19.38;69.14
18137;BME280;9194;42.632;23.298;2023-08-08T16:33:21;92757.47;;;19.06;76.33
18137;BME280;9194;42.632;23.298;2023-08-08T16:38:22;92762.25;;;18.94;69.85
18137;BME280;9194;42.632;23.298;2023-08-08T16:43:24;92762.72;;;19.16;69.04
18137;BME280;9194;42.632;23.298;2023-08-08T16:48:25;92775.44;;;19.09;67.42
18137;BME280;9194;42.632;23.298;2023-08-08T16:53:26;92779.13;;;19.03;69.04
18137;BME280;9194;42.632;23.298;2023-08-08T16:58:27;92783.09;;;18.96;70.79
18137;BME280;9194;42.632;23.298;2023-08-08T17:03:28;92785.50;;;18.92;77.79
18137;BME280;9194;42.632;23.298;2023-08-08T17:08:29;92795.53;;;18.70;73.94
18137;BME280;9194;42.632;23.298;2023-08-08T17:13:31;92791.84;;;18.51;72.85
18137;BME280;9194;42.632;23.298;2023-08-08T17:18:33;92798.69;;;18.36;77.11
18137;BME280;9194;42.632;23.298;2023-08-08T17:23:34;92802.34;;;17.95;81.49
18137;BME280;9194;42.632;23.298;2023-08-08T17:28:36;92799.97;;;17.83;82.61
18137;BME280;9194;42.632;23.298;2023-08-08T17:33:37;92803.56;;;17.57;86.57
18137;BME280;9194;42.632;23.298;2023-08-08T17:38:38;92810.50;;;17.11;87.38
18137;BME280;9194;42.632;23.298;2023-08-08T17:43:39;92811.06;;;17.18;89.20
18137;BME280;9194;42.632;23.298;2023-08-08T17:48:40;92819.38;;;17.00;88.79
18137;BME280;9194;42.632;23.298;2023-08-08T17:53:41;92823.94;;;16.72;88.60
18137;BME280;9194;42.632;23.298;2023-08-08T17:58:43;92834.31;;;16.57;91.08
18137;BME280;9194;42.632;23.298;2023-08-08T18:03:45;92850.91;;;16.31;94.28
18137;BME280;9194;42.632;23.298;2023-08-08T18:08:46;92847.22;;;16.27;94.23
18137;BME280;9194;42.632;23.298;2023-08-08T18:13:47;92852.22;;;16.28;95.69
18137;BME280;9194;42.632;23.298;2023-08-08T18:18:49;92855.06;;;16.22;96.81
18137;BME280;9194;42.632;23.298;2023-08-08T18:23:50;92855.25;;;16.15;97.19
18137;BME280;9194;42.632;23.298;2023-08-08T18:28:51;92860.22;;;16.12;98.16
18137;BME280;9194;42.632;23.298;2023-08-08T18:34:02;92876.63;;;16.24;97.51
18137;BME280;9194;42.632;23.298;2023-08-08T18:39:06;92874.50;;;16.26;94.53
18137;BME280;9194;42.632;23.298;2023-08-08T18:44:08;92881.41;;;16.32;94.46
18137;BME280;9194;42.632;23.298;2023-08-08T18:49:12;92881.25;;;16.43;95.70
18137;BME280;9194;42.632;23.298;2023-08-08T18:54:13;92883.81;;;16.38;95.18
18137;BME280;9194;42.632;23.298;2023-08-08T18:59:15;92890.31;;;16.31;96.24
18137;BME280;9194;42.632;23.298;2023-08-08T19:04:16;92898.75;;;16.33;95.82
18137;BME280;9194;42.632;23.298;2023-08-08T19:09:18;92896.53;;;16.20;98.55
18137;BME280;9194;42.632;23.298;2023-08-08T19:14:20;92884.97;;;16.21;99.41
18137;BME280;9194;42.632;23.298;2023-08-08T19:19:21;92892.47;;;16.07;100.00
18137;BME280;9194;42.632;23.298;2023-08-08T19:24:22;92893.59;;;15.89;100.00
18137;BME280;9194;42.632;23.298;2023-08-08T19:29:24;92885.50;;;15.69;100.00
18137;BME280;9194;42.632;23.298;2023-08-08T19:34:25;92896.34;;;15.56;100.00
18137;BME280;9194;42.632;23.298;2023-08-08T19:39:26;92891.94;;;15.40;100.00
18137;BME280;9194;42.632;23.298;2023-08-08T19:44:28;92891.47;;;15.26;100.00
18137;BME280;9194;42.632;23.298;2023-08-08T19:49:29;92901.13;;;15.20;100.00
18137;BME280;9194;42.632;23.298;2023-08-08T19:54:30;92905.81;;;15.18;100.00
18137;BME280;9194;42.632;23.298;2023-08-08T19:59:31;92905.44;;;15.10;100.00
18137;BME280;9194;42.632;23.298;2023-08-08T20:04:33;92904.50;;;14.99;100.00
18137;BME280;9194;42.632;23.298;2023-08-08T20:09:34;92906.50;;;14.92;100.00
18137;BME280;9194;42.632;23.298;2023-08-08T20:14:35;92900.06;;;14.83;100.00
18137;BME280;9194;42.632;23.298;2023-08-08T20:19:36;92902.94;;;14.82;100.00
18137;BME280;9194;42.632;23.298;2023-08-08T20:24:37;92899.06;;;14.84;100.00
18137;BME280;9194;42.632;23.298;2023-08-08T20:29:39;92894.41;;;14.91;100.00
18137;BME280;9194;42.632;23.298;2023-08-08T20:34:40;92899.59;;;14.69;100.00
18137;BME280;9194;42.632;23.298;2023-08-08T20:39:41;92900.22;;;14.76;100.00
18137;BME280;9194;42.632;23.298;2023-08-08T20:44:43;92897.47;;;14.66;100.00
18137;BME280;9194;42.632;23.298;2023-08-08T20:49:44;92897.47;;;14.66;100.00
18137;BME280;9194;42.632;23.298;2023-08-08T20:54:47;92902.28;;;14.58;100.00
18137;BME280;9194;42.632;23.298;2023-08-08T20:59:49;92900.09;;;14.50;100.00
18137;BME280;9194;42.632;23.298;2023-08-08T21:04:50;92891.28;;;14.56;100.00
18137;BME280;9194;42.632;23.298;2023-08-08T21:09:53;92895.88;;;14.49;100.00
18137;BME280;9194;42.632;23.298;2023-08-08T21:14:54;92898.34;;;14.27;100.00
18137;BME280;9194;42.632;23.298;2023-08-08T21:19:55;92892.50;;;14.20;100.00
18137;BME280;9194;42.632;23.298;2023-08-08T21:24:57;92893.97;;;14.16;100.00
18137;BME280;9194;42.632;23.298;2023-08-08T21:29:58;92892.16;;;14.16;100.00
18137;BME280;9194;42.632;23.298;2023-08-08T21:34:59;92887.78;;;14.22;100.00
18137;BME280;9194;42.632;23.298;2023-08-08T21:40:01;92882.25;;;14.18;100.00
18137;BME280;9194;42.632;23.298;2023-08-08T21:45:03;92878.97;;;14.11;100.00
18137;BME280;9194;42.632;23.298;2023-08-08T21:50:05;92880.78;;;13.94;100.00
18137;BME280;9194;42.632;23.298;2023-08-08T21:55:06;92882.63;;;13.82;100.00
18137;BME280;9194;42.632;23.298;2023-08-08T22:00:08;92881.03;;;13.81;100.00
18137;BME280;9194;42.632;23.298;2023-08-08T22:05:17;92878.81;;;13.73;100.00
18137;BME280;9194;42.632;23.298;2023-08-08T22:10:18;92871.72;;;13.56;100.00
18137;BME280;9194;42.632;23.298;2023-08-08T22:15:19;92866.59;;;13.62;100.00
18137;BME280;9194;42.632;23.298;2023-08-08T22:20:20;92871.06;;;13.49;100.00
18137;BME280;9194;42.632;23.298;2023-08-08T22:25:22;92870.47;;;13.47;100.00
18137;BME280;9194;42.632;23.298;2023-08-08T22:30:23;92861.84;;;13.47;100.00
18137;BME280;9194;42.632;23.298;2023-08-08T22:35:24;92866.66;;;13.38;100.00
18137;BME280;9194;42.632;23.298;2023-08-08T22:40:25;92865.06;;;13.37;100.00
18137;BME280;9194;42.632;23.298;2023-08-08T22:45:27;92871.41;;;13.41;100.00
18137;BME280;9194;42.632;23.298;2023-08-08T22:50:28;92870.28;;;13.37;100.00
18137;BME280;9194;42.632;23.298;2023-08-08T22:55:29;92867.00;;;13.30;100.00
18137;BME280;9194;42.632;23.298;2023-08-08T23:00:31;92866.34;;;13.23;100.00
18137;BME280;9194;42.632;23.298;2023-08-08T23:05:32;92864.41;;;13.19;100.00
18137;BME280;9194;42.632;23.298;2023-08-08T23:10:33;92867.34;;;13.10;100.00
18137;BME280;9194;42.632;23.298;2023-08-08T23:15:34;92862.03;;;13.05;100.00
18137;BME280;9194;42.632;23.298;2023-08-08T23:20:35;92867.63;;;12.97;100.00
18137;BME280;9194;42.632;23.298;2023-08-08T23:25:37;92862.50;;;13.02;100.00
18137;BME280;9194;42.632;23.298;2023-08-08T23:30:38;92864.53;;;13.00;100.00
18137;BME280;9194;42.632;23.298;2023-08-08T23:35:39;92872.03;;;12.97;100.00
18137;BME280;9194;42.632;23.298;2023-08-08T23:40:40;92862.50;;;12.91;100.00
18137;BME280;9194;42.632;23.298;2023-08-08T23:45:41;92865.81;;;12.74;100.00
18137;BME280;9194;42.632;23.298;2023-08-08T23:50:42;92863.75;;;12.65;100.00
18137;BME280;9194;42.632;23.298;2023-08-08T23:55:44;92869.56;;;12.79;100.00
